sensor_id;sensor_type;location;lat;lon;timestamp;P1;durP1;ratioP1;P2;durP2;ratioP2
51732;SDS011;39139;53.144;6.244;2023-05-07T00:01:42;25.13;;;22.13;;
51732;SDS011;39139;53.144;6.244;2023-05-07T00:04:08;26.20;;;22.15;;
51732;SDS011;39139;53.144;6.244;2023-05-07T00:06:34;24.38;;;21.75;;
51732;SDS011;39139;53.144;6.244;2023-05-07T00:08:59;24.40;;;21.83;;
51732;SDS011;39139;53.144;6.244;2023-05-07T00:11:26;26.60;;;22.38;;
51732;SDS011;39139;53.144;6.244;2023-05-07T00:13:52;26.00;;;22.02;;
51732;SDS011;39139;53.144;6.244;2023-05-07T00:16:18;26.02;;;22.02;;
51732;SDS011;39139;53.144;6.244;2023-05-07T00:18:43;26.42;;;23.35;;
51732;SDS011;39139;53.144;6.244;2023-05-07T00:21:10;25.50;;;22.50;;
51732;SDS011;39139;53.144;6.244;2023-05-07T00:23:35;26.05;;;22.58;;
51732;SDS011;39139;53.144;6.244;2023-05-07T00:26:01;25.10;;;22.48;;
51732;SDS011;39139;53.144;6.244;2023-05-07T00:28:27;26.27;;;22.50;;
51732;SDS011;39139;53.144;6.244;2023-05-07T00:30:53;26.58;;;23.75;;
51732;SDS011;39139;53.144;6.244;2023-05-07T00:33:18;26.50;;;23.55;;
51732;SDS011;39139;53.144;6.244;2023-05-07T00:35:45;27.15;;;23.75;;
51732;SDS011;39139;53.144;6.244;2023-05-07T00:38:11;28.15;;;23.67;;
51732;SDS011;39139;53.144;6.244;2023-05-07T00:40:37;26.90;;;23.48;;
51732;SDS011;39139;53.144;6.244;2023-05-07T00:43:02;28.55;;;25.10;;
51732;SDS011;39139;53.144;6.244;2023-05-07T00:45:28;27.27;;;23.42;;
51732;SDS011;39139;53.144;6.244;2023-05-07T00:47:58;26.63;;;23.80;;
51732;SDS011;39139;53.144;6.244;2023-05-07T00:50:25;31.15;;;25.05;;
51732;SDS011;39139;53.144;6.244;2023-05-07T00:52:52;27.85;;;23.52;;
51732;SDS011;39139;53.144;6.244;2023-05-07T00:55:18;30.85;;;23.92;;
51732;SDS011;39139;53.144;6.244;2023-05-07T00:57:45;27.25;;;23.98;;
51732;SDS011;39139;53.144;6.244;2023-05-07T01:00:11;27.33;;;24.38;;
51732;SDS011;39139;53.144;6.244;2023-05-07T01:02:40;28.40;;;24.45;;
51732;SDS011;39139;53.144;6.244;2023-05-07T01:07:40;30.35;;;24.27;;
51732;SDS011;39139;53.144;6.244;2023-05-07T01:10:07;27.52;;;24.17;;
51732;SDS011;39139;53.144;6.244;2023-05-07T01:12:35;30.48;;;25.75;;
51732;SDS011;39139;53.144;6.244;2023-05-07T01:15:02;31.42;;;25.35;;
51732;SDS011;39139;53.144;6.244;2023-05-07T01:17:29;30.65;;;25.80;;
51732;SDS011;39139;53.144;6.244;2023-05-07T01:19:58;30.97;;;25.40;;
51732;SDS011;39139;53.144;6.244;2023-05-07T01:22:28;32.45;;;26.25;;
51732;SDS011;39139;53.144;6.244;2023-05-07T01:24:58;32.90;;;26.55;;
51732;SDS011;39139;53.144;6.244;2023-05-07T01:27:24;33.90;;;26.77;;
51732;SDS011;39139;53.144;6.244;2023-05-07T01:29:51;33.92;;;27.20;;
51732;SDS011;39139;53.144;6.244;2023-05-07T01:32:17;33.20;;;26.92;;
51732;SDS011;39139;53.144;6.244;2023-05-07T01:34:46;33.72;;;26.17;;
51732;SDS011;39139;53.144;6.244;2023-05-07T01:37:14;34.70;;;27.83;;
51732;SDS011;39139;53.144;6.244;2023-05-07T01:39:40;32.42;;;24.98;;
51732;SDS011;39139;53.144;6.244;2023-05-07T01:42:08;34.85;;;27.10;;
51732;SDS011;39139;53.144;6.244;2023-05-07T01:44:33;34.38;;;27.90;;
51732;SDS011;39139;53.144;6.244;2023-05-07T01:46:59;36.47;;;26.92;;
51732;SDS011;39139;53.144;6.244;2023-05-07T01:49:27;32.38;;;27.85;;
51732;SDS011;39139;53.144;6.244;2023-05-07T01:51:52;34.60;;;29.42;;
51732;SDS011;39139;53.144;6.244;2023-05-07T01:54:18;32.65;;;28.70;;
51732;SDS011;39139;53.144;6.244;2023-05-07T01:56:45;38.15;;;29.25;;
51732;SDS011;39139;53.144;6.244;2023-05-07T01:59:13;33.10;;;27.55;;
51732;SDS011;39139;53.144;6.244;2023-05-07T02:01:38;38.15;;;30.10;;
51732;SDS011;39139;53.144;6.244;2023-05-07T02:04:04;34.72;;;30.00;;
51732;SDS011;39139;53.144;6.244;2023-05-07T02:06:29;32.15;;;27.35;;
51732;SDS011;39139;53.144;6.244;2023-05-07T02:08:56;34.55;;;27.23;;
51732;SDS011;39139;53.144;6.244;2023-05-07T02:11:21;35.17;;;29.35;;
51732;SDS011;39139;53.144;6.244;2023-05-07T02:13:47;35.15;;;28.25;;
51732;SDS011;39139;53.144;6.244;2023-05-07T02:16:13;31.30;;;27.92;;
51732;SDS011;39139;53.144;6.244;2023-05-07T02:18:39;35.22;;;30.58;;
51732;SDS011;39139;53.144;6.244;2023-05-07T02:21:05;35.05;;;29.13;;
51732;SDS011;39139;53.144;6.244;2023-05-07T02:23:30;33.08;;;29.08;;
51732;SDS011;39139;53.144;6.244;2023-05-07T02:25:56;38.97;;;30.90;;
51732;SDS011;39139;53.144;6.244;2023-05-07T02:28:22;37.25;;;30.50;;
51732;SDS011;39139;53.144;6.244;2023-05-07T02:30:47;36.13;;;30.20;;
51732;SDS011;39139;53.144;6.244;2023-05-07T02:33:13;33.08;;;28.05;;
51732;SDS011;39139;53.144;6.244;2023-05-07T02:35:39;36.40;;;29.73;;
51732;SDS011;39139;53.144;6.244;2023-05-07T02:38:04;41.17;;;32.53;;
51732;SDS011;39139;53.144;6.244;2023-05-07T02:40:30;36.53;;;29.23;;
51732;SDS011;39139;53.144;6.244;2023-05-07T02:42:58;38.15;;;29.65;;
51732;SDS011;39139;53.144;6.244;2023-05-07T02:45:24;38.33;;;31.05;;
51732;SDS011;39139;53.144;6.244;2023-05-07T02:47:50;34.85;;;29.08;;
51732;SDS011;39139;53.144;6.244;2023-05-07T02:50:16;39.63;;;31.30;;
51732;SDS011;39139;53.144;6.244;2023-05-07T02:52:41;33.20;;;29.63;;
51732;SDS011;39139;53.144;6.244;2023-05-07T02:55:07;41.03;;;32.53;;
51732;SDS011;39139;53.144;6.244;2023-05-07T02:57:33;38.00;;;31.92;;
51732;SDS011;39139;53.144;6.244;2023-05-07T02:59:59;40.40;;;32.92;;
51732;SDS011;39139;53.144;6.244;2023-05-07T03:02:25;39.13;;;32.55;;
51732;SDS011;39139;53.144;6.244;2023-05-07T03:04:50;38.45;;;31.25;;
51732;SDS011;39139;53.144;6.244;2023-05-07T03:07:16;45.92;;;32.50;;
51732;SDS011;39139;53.144;6.244;2023-05-07T03:09:42;41.47;;;33.05;;
51732;SDS011;39139;53.144;6.244;2023-05-07T03:12:07;44.47;;;35.47;;
51732;SDS011;39139;53.144;6.244;2023-05-07T03:14:33;43.33;;;34.33;;
51732;SDS011;39139;53.144;6.244;2023-05-07T03:16:59;44.80;;;34.90;;
51732;SDS011;39139;53.144;6.244;2023-05-07T03:19:25;45.65;;;35.28;;
51732;SDS011;39139;53.144;6.244;2023-05-07T03:21:50;45.50;;;35.05;;
51732;SDS011;39139;53.144;6.244;2023-05-07T03:24:16;42.97;;;35.38;;
51732;SDS011;39139;53.144;6.244;2023-05-07T03:26:42;42.65;;;35.33;;
51732;SDS011;39139;53.144;6.244;2023-05-07T03:29:07;51.28;;;36.05;;
51732;SDS011;39139;53.144;6.244;2023-05-07T03:31:33;48.72;;;36.65;;
51732;SDS011;39139;53.144;6.244;2023-05-07T03:33:58;46.28;;;36.45;;
51732;SDS011;39139;53.144;6.244;2023-05-07T03:36:24;50.15;;;36.38;;
51732;SDS011;39139;53.144;6.244;2023-05-07T03:38:51;51.92;;;36.10;;
51732;SDS011;39139;53.144;6.244;2023-05-07T03:41:17;47.08;;;36.50;;
51732;SDS011;39139;53.144;6.244;2023-05-07T03:43:42;47.88;;;36.58;;
51732;SDS011;39139;53.144;6.244;2023-05-07T03:46:08;47.45;;;36.45;;
51732;SDS011;39139;53.144;6.244;2023-05-07T03:48:34;53.22;;;38.30;;
51732;SDS011;39139;53.144;6.244;2023-05-07T03:51:00;47.95;;;35.75;;
51732;SDS011;39139;53.144;6.244;2023-05-07T03:53:25;53.83;;;38.08;;
51732;SDS011;39139;53.144;6.244;2023-05-07T03:55:51;52.67;;;37.13;;
51732;SDS011;39139;53.144;6.244;2023-05-07T03:58:17;48.05;;;36.45;;
51732;SDS011;39139;53.144;6.244;2023-05-07T04:00:44;54.22;;;39.10;;
51732;SDS011;39139;53.144;6.244;2023-05-07T04:03:09;51.00;;;36.67;;
51732;SDS011;39139;53.144;6.244;2023-05-07T04:05:35;52.72;;;38.15;;
51732;SDS011;39139;53.144;6.244;2023-05-07T04:08:01;52.00;;;39.15;;
51732;SDS011;39139;53.144;6.244;2023-05-07T04:10:29;57.47;;;40.08;;
51732;SDS011;39139;53.144;6.244;2023-05-07T04:12:55;56.42;;;41.22;;
51732;SDS011;39139;53.144;6.244;2023-05-07T04:15:22;55.47;;;39.05;;
51732;SDS011;39139;53.144;6.244;2023-05-07T04:17:48;56.13;;;39.35;;
51732;SDS011;39139;53.144;6.244;2023-05-07T04:20:14;53.58;;;39.10;;
51732;SDS011;39139;53.144;6.244;2023-05-07T04:22:41;57.65;;;38.67;;
51732;SDS011;39139;53.144;6.244;2023-05-07T04:25:07;51.88;;;38.42;;
51732;SDS011;39139;53.144;6.244;2023-05-07T04:27:36;55.90;;;39.78;;
51732;SDS011;39139;53.144;6.244;2023-05-07T04:30:02;58.38;;;40.95;;
51732;SDS011;39139;53.144;6.244;2023-05-07T04:32:29;56.67;;;40.65;;
51732;SDS011;39139;53.144;6.244;2023-05-07T04:34:55;55.75;;;39.92;;
51732;SDS011;39139;53.144;6.244;2023-05-07T04:37:21;55.05;;;40.13;;
51732;SDS011;39139;53.144;6.244;2023-05-07T04:39:47;53.97;;;39.50;;
51732;SDS011;39139;53.144;6.244;2023-05-07T04:42:16;55.20;;;38.55;;
51732;SDS011;39139;53.144;6.244;2023-05-07T04:44:43;59.33;;;41.10;;
51732;SDS011;39139;53.144;6.244;2023-05-07T04:47:09;58.28;;;40.85;;
51732;SDS011;39139;53.144;6.244;2023-05-07T04:49:35;53.08;;;37.25;;
51732;SDS011;39139;53.144;6.244;2023-05-07T04:52:01;59.17;;;40.17;;
51732;SDS011;39139;53.144;6.244;2023-05-07T04:54:28;52.80;;;38.85;;
51732;SDS011;39139;53.144;6.244;2023-05-07T04:56:54;55.70;;;39.47;;
51732;SDS011;39139;53.144;6.244;2023-05-07T04:59:19;51.85;;;37.75;;
51732;SDS011;39139;53.144;6.244;2023-05-07T05:01:45;52.38;;;38.60;;
51732;SDS011;39139;53.144;6.244;2023-05-07T05:04:10;51.53;;;39.08;;
51732;SDS011;39139;53.144;6.244;2023-05-07T05:06:36;53.92;;;37.20;;
51732;SDS011;39139;53.144;6.244;2023-05-07T05:09:02;55.22;;;40.03;;
51732;SDS011;39139;53.144;6.244;2023-05-07T05:11:29;50.08;;;37.58;;
51732;SDS011;39139;53.144;6.244;2023-05-07T05:13:55;51.08;;;36.78;;
51732;SDS011;39139;53.144;6.244;2023-05-07T05:16:20;51.80;;;38.15;;
51732;SDS011;39139;53.144;6.244;2023-05-07T05:18:46;48.85;;;36.30;;
51732;SDS011;39139;53.144;6.244;2023-05-07T05:21:11;53.75;;;39.00;;
51732;SDS011;39139;53.144;6.244;2023-05-07T05:23:37;49.80;;;36.28;;
51732;SDS011;39139;53.144;6.244;2023-05-07T05:26:03;49.10;;;35.03;;
51732;SDS011;39139;53.144;6.244;2023-05-07T05:28:29;48.10;;;35.33;;
51732;SDS011;39139;53.144;6.244;2023-05-07T05:30:55;43.83;;;35.33;;
51732;SDS011;39139;53.144;6.244;2023-05-07T05:33:20;47.83;;;36.28;;
51732;SDS011;39139;53.144;6.244;2023-05-07T05:35:46;49.15;;;33.85;;
51732;SDS011;39139;53.144;6.244;2023-05-07T05:38:12;45.42;;;34.42;;
51732;SDS011;39139;53.144;6.244;2023-05-07T05:40:38;42.25;;;34.25;;
51732;SDS011;39139;53.144;6.244;2023-05-07T05:43:03;47.13;;;35.63;;
51732;SDS011;39139;53.144;6.244;2023-05-07T05:45:29;45.78;;;34.33;;
51732;SDS011;39139;53.144;6.244;2023-05-07T05:47:55;44.67;;;34.42;;
51732;SDS011;39139;53.144;6.244;2023-05-07T05:50:21;41.45;;;33.20;;
51732;SDS011;39139;53.144;6.244;2023-05-07T05:52:47;42.90;;;32.38;;
51732;SDS011;39139;53.144;6.244;2023-05-07T05:55:13;42.15;;;31.75;;
51732;SDS011;39139;53.144;6.244;2023-05-07T05:57:38;45.30;;;33.13;;
51732;SDS011;39139;53.144;6.244;2023-05-07T06:00:05;41.25;;;32.38;;
51732;SDS011;39139;53.144;6.244;2023-05-07T06:02:31;40.72;;;31.63;;
51732;SDS011;39139;53.144;6.244;2023-05-07T06:04:57;38.95;;;31.85;;
51732;SDS011;39139;53.144;6.244;2023-05-07T06:07:23;40.83;;;32.55;;
51732;SDS011;39139;53.144;6.244;2023-05-07T06:09:48;39.10;;;31.75;;
51732;SDS011;39139;53.144;6.244;2023-05-07T06:12:14;37.92;;;31.63;;
51732;SDS011;39139;53.144;6.244;2023-05-07T06:14:39;46.75;;;33.90;;
51732;SDS011;39139;53.144;6.244;2023-05-07T06:17:07;40.70;;;31.50;;
51732;SDS011;39139;53.144;6.244;2023-05-07T06:19:33;35.67;;;28.98;;
51732;SDS011;39139;53.144;6.244;2023-05-07T06:21:58;39.15;;;31.90;;
51732;SDS011;39139;53.144;6.244;2023-05-07T06:24:26;39.63;;;30.70;;
51732;SDS011;39139;53.144;6.244;2023-05-07T06:26:51;37.30;;;30.40;;
51732;SDS011;39139;53.144;6.244;2023-05-07T06:29:17;37.45;;;29.02;;
51732;SDS011;39139;53.144;6.244;2023-05-07T06:31:43;36.42;;;28.50;;
51732;SDS011;39139;53.144;6.244;2023-05-07T06:34:09;33.35;;;29.17;;
51732;SDS011;39139;53.144;6.244;2023-05-07T06:36:39;35.38;;;30.40;;
51732;SDS011;39139;53.144;6.244;2023-05-07T06:39:08;36.27;;;28.93;;
51732;SDS011;39139;53.144;6.244;2023-05-07T06:41:33;38.42;;;29.98;;
51732;SDS011;39139;53.144;6.244;2023-05-07T06:44:00;39.47;;;28.75;;
51732;SDS011;39139;53.144;6.244;2023-05-07T06:46:28;32.10;;;27.02;;
51732;SDS011;39139;53.144;6.244;2023-05-07T06:48:54;35.90;;;27.98;;
51732;SDS011;39139;53.144;6.244;2023-05-07T06:51:21;32.15;;;26.60;;
51732;SDS011;39139;53.144;6.244;2023-05-07T06:53:47;37.88;;;29.00;;
51732;SDS011;39139;53.144;6.244;2023-05-07T06:56:13;32.40;;;27.30;;
51732;SDS011;39139;53.144;6.244;2023-05-07T06:58:41;31.17;;;26.98;;
51732;SDS011;39139;53.144;6.244;2023-05-07T07:01:06;36.13;;;27.83;;
51732;SDS011;39139;53.144;6.244;2023-05-07T07:03:32;36.97;;;29.25;;
51732;SDS011;39139;53.144;6.244;2023-05-07T07:05:58;32.13;;;27.85;;
51732;SDS011;39139;53.144;6.244;2023-05-07T07:08:23;35.00;;;27.23;;
51732;SDS011;39139;53.144;6.244;2023-05-07T07:10:49;30.98;;;26.23;;
51732;SDS011;39139;53.144;6.244;2023-05-07T07:13:14;35.13;;;28.23;;
51732;SDS011;39139;53.144;6.244;2023-05-07T07:15:40;36.42;;;27.83;;
51732;SDS011;39139;53.144;6.244;2023-05-07T07:18:06;29.63;;;25.33;;
51732;SDS011;39139;53.144;6.244;2023-05-07T07:20:32;33.28;;;28.23;;
51732;SDS011;39139;53.144;6.244;2023-05-07T07:22:57;35.15;;;27.88;;
51732;SDS011;39139;53.144;6.244;2023-05-07T07:25:23;34.63;;;27.30;;
51732;SDS011;39139;53.144;6.244;2023-05-07T07:27:49;34.70;;;28.05;;
51732;SDS011;39139;53.144;6.244;2023-05-07T07:30:15;35.10;;;28.30;;
51732;SDS011;39139;53.144;6.244;2023-05-07T07:32:40;34.35;;;28.00;;
51732;SDS011;39139;53.144;6.244;2023-05-07T07:35:06;33.85;;;27.35;;
51732;SDS011;39139;53.144;6.244;2023-05-07T07:37:32;33.25;;;26.35;;
51732;SDS011;39139;53.144;6.244;2023-05-07T07:39:58;30.90;;;26.33;;
51732;SDS011;39139;53.144;6.244;2023-05-07T07:42:23;33.88;;;27.35;;
51732;SDS011;39139;53.144;6.244;2023-05-07T07:44:49;33.13;;;28.17;;
51732;SDS011;39139;53.144;6.244;2023-05-07T07:47:15;32.10;;;26.35;;
51732;SDS011;39139;53.144;6.244;2023-05-07T07:49:40;32.63;;;26.17;;
51732;SDS011;39139;53.144;6.244;2023-05-07T07:52:06;31.70;;;26.83;;
51732;SDS011;39139;53.144;6.244;2023-05-07T07:54:31;31.52;;;25.77;;
51732;SDS011;39139;53.144;6.244;2023-05-07T07:56:57;30.45;;;26.58;;
51732;SDS011;39139;53.144;6.244;2023-05-07T07:59:23;32.50;;;26.83;;
51732;SDS011;39139;53.144;6.244;2023-05-07T08:01:48;33.13;;;25.52;;
51732;SDS011;39139;53.144;6.244;2023-05-07T08:04:15;32.78;;;26.15;;
51732;SDS011;39139;53.144;6.244;2023-05-07T08:06:41;32.95;;;26.38;;
51732;SDS011;39139;53.144;6.244;2023-05-07T08:09:07;31.92;;;25.98;;
51732;SDS011;39139;53.144;6.244;2023-05-07T08:11:33;31.95;;;26.30;;
51732;SDS011;39139;53.144;6.244;2023-05-07T08:13:59;31.10;;;27.27;;
51732;SDS011;39139;53.144;6.244;2023-05-07T08:16:25;30.33;;;26.45;;
51732;SDS011;39139;53.144;6.244;2023-05-07T08:18:50;32.97;;;28.27;;
51732;SDS011;39139;53.144;6.244;2023-05-07T08:21:16;32.90;;;27.23;;
51732;SDS011;39139;53.144;6.244;2023-05-07T08:23:42;32.05;;;26.70;;
51732;SDS011;39139;53.144;6.244;2023-05-07T08:26:08;31.95;;;28.35;;
51732;SDS011;39139;53.144;6.244;2023-05-07T08:28:34;36.00;;;27.17;;
51732;SDS011;39139;53.144;6.244;2023-05-07T08:30:59;30.55;;;26.40;;
51732;SDS011;39139;53.144;6.244;2023-05-07T08:33:26;32.28;;;26.85;;
51732;SDS011;39139;53.144;6.244;2023-05-07T08:35:51;35.25;;;26.33;;
51732;SDS011;39139;53.144;6.244;2023-05-07T08:38:17;33.05;;;26.92;;
51732;SDS011;39139;53.144;6.244;2023-05-07T08:40:43;35.13;;;26.95;;
51732;SDS011;39139;53.144;6.244;2023-05-07T08:43:08;32.60;;;27.23;;
51732;SDS011;39139;53.144;6.244;2023-05-07T08:45:38;34.53;;;26.30;;
51732;SDS011;39139;53.144;6.244;2023-05-07T08:48:08;33.53;;;26.90;;
51732;SDS011;39139;53.144;6.244;2023-05-07T08:50:39;35.17;;;28.23;;
51732;SDS011;39139;53.144;6.244;2023-05-07T08:53:05;34.90;;;28.35;;
51732;SDS011;39139;53.144;6.244;2023-05-07T08:55:30;32.38;;;27.58;;
51732;SDS011;39139;53.144;6.244;2023-05-07T08:57:56;35.60;;;29.60;;
51732;SDS011;39139;53.144;6.244;2023-05-07T09:00:22;33.08;;;27.25;;
51732;SDS011;39139;53.144;6.244;2023-05-07T09:02:47;36.45;;;29.98;;
51732;SDS011;39139;53.144;6.244;2023-05-07T09:05:13;34.35;;;27.00;;
51732;SDS011;39139;53.144;6.244;2023-05-07T09:07:39;32.05;;;26.60;;
51732;SDS011;39139;53.144;6.244;2023-05-07T09:10:05;31.90;;;27.98;;
51732;SDS011;39139;53.144;6.244;2023-05-07T09:12:31;33.60;;;26.55;;
51732;SDS011;39139;53.144;6.244;2023-05-07T09:14:58;34.70;;;27.10;;
51732;SDS011;39139;53.144;6.244;2023-05-07T09:17:24;32.00;;;28.50;;
51732;SDS011;39139;53.144;6.244;2023-05-07T09:19:49;34.30;;;27.92;;
51732;SDS011;39139;53.144;6.244;2023-05-07T09:22:15;32.83;;;26.15;;
51732;SDS011;39139;53.144;6.244;2023-05-07T09:24:43;31.13;;;26.90;;
51732;SDS011;39139;53.144;6.244;2023-05-07T09:27:15;31.65;;;26.33;;
51732;SDS011;39139;53.144;6.244;2023-05-07T09:29:43;31.65;;;27.00;;
51732;SDS011;39139;53.144;6.244;2023-05-07T09:32:09;32.55;;;27.08;;
51732;SDS011;39139;53.144;6.244;2023-05-07T09:34:35;32.90;;;27.23;;
51732;SDS011;39139;53.144;6.244;2023-05-07T09:37:04;30.23;;;26.92;;
51732;SDS011;39139;53.144;6.244;2023-05-07T09:42:09;31.88;;;26.15;;
51732;SDS011;39139;53.144;6.244;2023-05-07T09:44:36;31.30;;;27.35;;
51732;SDS011;39139;53.144;6.244;2023-05-07T09:47:06;31.08;;;27.17;;
51732;SDS011;39139;53.144;6.244;2023-05-07T09:49:35;30.77;;;26.75;;
51732;SDS011;39139;53.144;6.244;2023-05-07T09:52:03;30.13;;;25.92;;
51732;SDS011;39139;53.144;6.244;2023-05-07T09:54:36;29.80;;;26.25;;
51732;SDS011;39139;53.144;6.244;2023-05-07T09:57:05;30.55;;;27.33;;
51732;SDS011;39139;53.144;6.244;2023-05-07T09:59:32;32.75;;;25.13;;
51732;SDS011;39139;53.144;6.244;2023-05-07T10:01:59;26.23;;;23.42;;
51732;SDS011;39139;53.144;6.244;2023-05-07T10:04:26;30.40;;;25.17;;
51732;SDS011;39139;53.144;6.244;2023-05-07T10:06:52;25.73;;;21.90;;
51732;SDS011;39139;53.144;6.244;2023-05-07T10:09:20;27.10;;;24.17;;
51732;SDS011;39139;53.144;6.244;2023-05-07T10:11:48;31.08;;;24.40;;
51732;SDS011;39139;53.144;6.244;2023-05-07T10:14:15;26.30;;;23.48;;
51732;SDS011;39139;53.144;6.244;2023-05-07T10:16:40;26.85;;;24.05;;
51732;SDS011;39139;53.144;6.244;2023-05-07T10:19:07;27.00;;;24.10;;
51732;SDS011;39139;53.144;6.244;2023-05-07T10:21:35;27.58;;;23.48;;
51732;SDS011;39139;53.144;6.244;2023-05-07T10:24:09;25.60;;;22.90;;
51732;SDS011;39139;53.144;6.244;2023-05-07T10:26:40;24.52;;;22.00;;
51732;SDS011;39139;53.144;6.244;2023-05-07T10:34:36;24.08;;;21.58;;
51732;SDS011;39139;53.144;6.244;2023-05-07T10:37:05;22.63;;;20.33;;
51732;SDS011;39139;53.144;6.244;2023-05-07T10:39:32;23.10;;;20.63;;
51732;SDS011;39139;53.144;6.244;2023-05-07T10:42:07;23.45;;;21.05;;
51732;SDS011;39139;53.144;6.244;2023-05-07T10:44:36;24.25;;;21.67;;
51732;SDS011;39139;53.144;6.244;2023-05-07T10:52:13;22.17;;;19.85;;
51732;SDS011;39139;53.144;6.244;2023-05-07T10:54:43;22.33;;;20.05;;
51732;SDS011;39139;53.144;6.244;2023-05-07T10:59:58;22.23;;;19.90;;
51732;SDS011;39139;53.144;6.244;2023-05-07T11:02:23;21.67;;;19.48;;
51732;SDS011;39139;53.144;6.244;2023-05-07T11:05:24;22.90;;;20.63;;
51732;SDS011;39139;53.144;6.244;2023-05-07T11:07:53;23.15;;;20.17;;
51732;SDS011;39139;53.144;6.244;2023-05-07T11:10:20;20.52;;;18.48;;
51732;SDS011;39139;53.144;6.244;2023-05-07T11:12:47;21.40;;;19.25;;
51732;SDS011;39139;53.144;6.244;2023-05-07T11:18:02;20.45;;;18.45;;
51732;SDS011;39139;53.144;6.244;2023-05-07T11:21:02;22.35;;;20.00;;
51732;SDS011;39139;53.144;6.244;2023-05-07T11:26:00;20.27;;;18.25;;
51732;SDS011;39139;53.144;6.244;2023-05-07T11:28:30;19.88;;;17.90;;
51732;SDS011;39139;53.144;6.244;2023-05-07T11:30:56;19.65;;;17.60;;
51732;SDS011;39139;53.144;6.244;2023-05-07T11:33:23;20.67;;;18.60;;
51732;SDS011;39139;53.144;6.244;2023-05-07T11:35:54;20.73;;;18.83;;
51732;SDS011;39139;53.144;6.244;2023-05-07T11:38:21;19.55;;;17.65;;
51732;SDS011;39139;53.144;6.244;2023-05-07T11:40:53;19.52;;;17.65;;
51732;SDS011;39139;53.144;6.244;2023-05-07T11:43:21;19.33;;;17.42;;
51732;SDS011;39139;53.144;6.244;2023-05-07T11:45:47;19.85;;;17.85;;
51732;SDS011;39139;53.144;6.244;2023-05-07T11:48:14;19.85;;;17.95;;
51732;SDS011;39139;53.144;6.244;2023-05-07T11:50:53;19.75;;;17.75;;
51732;SDS011;39139;53.144;6.244;2023-05-07T11:53:25;22.40;;;17.88;;
51732;SDS011;39139;53.144;6.244;2023-05-07T11:55:52;19.52;;;17.73;;
51732;SDS011;39139;53.144;6.244;2023-05-07T11:58:24;19.38;;;17.52;;
51732;SDS011;39139;53.144;6.244;2023-05-07T12:00:53;19.27;;;17.42;;
51732;SDS011;39139;53.144;6.244;2023-05-07T12:03:19;19.23;;;17.33;;
51732;SDS011;39139;53.144;6.244;2023-05-07T12:05:46;19.98;;;17.98;;
51732;SDS011;39139;53.144;6.244;2023-05-07T12:08:15;20.25;;;18.42;;
51732;SDS011;39139;53.144;6.244;2023-05-07T12:10:42;21.27;;;19.30;;
51732;SDS011;39139;53.144;6.244;2023-05-07T12:13:16;20.48;;;18.58;;
51732;SDS011;39139;53.144;6.244;2023-05-07T12:15:42;21.63;;;19.35;;
51732;SDS011;39139;53.144;6.244;2023-05-07T12:18:08;20.27;;;18.20;;
51732;SDS011;39139;53.144;6.244;2023-05-07T12:20:35;20.50;;;18.50;;
51732;SDS011;39139;53.144;6.244;2023-05-07T12:23:01;19.48;;;17.48;;
51732;SDS011;39139;53.144;6.244;2023-05-07T12:25:29;19.05;;;17.15;;
51732;SDS011;39139;53.144;6.244;2023-05-07T12:28:02;19.48;;;17.67;;
51732;SDS011;39139;53.144;6.244;2023-05-07T12:30:30;19.23;;;16.83;;
51732;SDS011;39139;53.144;6.244;2023-05-07T12:32:57;18.05;;;16.25;;
51732;SDS011;39139;53.144;6.244;2023-05-07T12:35:27;19.38;;;17.45;;
51732;SDS011;39139;53.144;6.244;2023-05-07T12:37:56;20.10;;;18.33;;
51732;SDS011;39139;53.144;6.244;2023-05-07T12:40:24;18.73;;;17.05;;
51732;SDS011;39139;53.144;6.244;2023-05-07T12:43:20;18.90;;;16.98;;
51732;SDS011;39139;53.144;6.244;2023-05-07T12:45:50;19.50;;;17.70;;
51732;SDS011;39139;53.144;6.244;2023-05-07T12:48:16;18.85;;;16.98;;
51732;SDS011;39139;53.144;6.244;2023-05-07T12:50:43;19.52;;;17.73;;
51732;SDS011;39139;53.144;6.244;2023-05-07T12:53:10;19.77;;;17.90;;
51732;SDS011;39139;53.144;6.244;2023-05-07T12:55:44;17.30;;;15.70;;
51732;SDS011;39139;53.144;6.244;2023-05-07T12:58:21;18.92;;;17.02;;
51732;SDS011;39139;53.144;6.244;2023-05-07T13:00:48;17.05;;;15.45;;
51732;SDS011;39139;53.144;6.244;2023-05-07T13:03:25;18.58;;;16.90;;
51732;SDS011;39139;53.144;6.244;2023-05-07T13:05:51;17.50;;;16.00;;
51732;SDS011;39139;53.144;6.244;2023-05-07T13:11:12;17.73;;;16.17;;
51732;SDS011;39139;53.144;6.244;2023-05-07T13:13:39;17.30;;;15.80;;
51732;SDS011;39139;53.144;6.244;2023-05-07T13:16:07;18.90;;;17.10;;
51732;SDS011;39139;53.144;6.244;2023-05-07T13:18:35;19.05;;;17.10;;
51732;SDS011;39139;53.144;6.244;2023-05-07T13:21:03;18.02;;;16.33;;
51732;SDS011;39139;53.144;6.244;2023-05-07T13:23:29;17.70;;;15.98;;
51732;SDS011;39139;53.144;6.244;2023-05-07T13:25:55;18.33;;;16.52;;
51732;SDS011;39139;53.144;6.244;2023-05-07T13:28:23;17.55;;;15.93;;
51732;SDS011;39139;53.144;6.244;2023-05-07T13:30:49;19.15;;;17.42;;
51732;SDS011;39139;53.144;6.244;2023-05-07T13:33:16;18.02;;;16.42;;
51732;SDS011;39139;53.144;6.244;2023-05-07T13:35:42;16.55;;;14.95;;
51732;SDS011;39139;53.144;6.244;2023-05-07T13:38:08;17.23;;;15.52;;
51732;SDS011;39139;53.144;6.244;2023-05-07T13:40:34;17.15;;;15.48;;
51732;SDS011;39139;53.144;6.244;2023-05-07T13:43:00;17.90;;;16.20;;
51732;SDS011;39139;53.144;6.244;2023-05-07T13:45:29;15.95;;;14.55;;
51732;SDS011;39139;53.144;6.244;2023-05-07T13:47:55;17.45;;;15.90;;
51732;SDS011;39139;53.144;6.244;2023-05-07T13:50:21;17.52;;;15.70;;
51732;SDS011;39139;53.144;6.244;2023-05-07T13:52:47;17.42;;;15.80;;
51732;SDS011;39139;53.144;6.244;2023-05-07T13:55:19;18.00;;;16.30;;
51732;SDS011;39139;53.144;6.244;2023-05-07T13:57:46;16.52;;;15.00;;
51732;SDS011;39139;53.144;6.244;2023-05-07T14:00:12;16.85;;;15.27;;
51732;SDS011;39139;53.144;6.244;2023-05-07T14:02:39;18.63;;;16.92;;
51732;SDS011;39139;53.144;6.244;2023-05-07T14:05:05;16.67;;;15.18;;
51732;SDS011;39139;53.144;6.244;2023-05-07T14:07:32;18.02;;;16.52;;
51732;SDS011;39139;53.144;6.244;2023-05-07T14:09:58;17.17;;;15.55;;
51732;SDS011;39139;53.144;6.244;2023-05-07T14:12:24;16.70;;;15.20;;
51732;SDS011;39139;53.144;6.244;2023-05-07T14:14:50;17.55;;;15.95;;
51732;SDS011;39139;53.144;6.244;2023-05-07T14:17:18;18.52;;;16.67;;
51732;SDS011;39139;53.144;6.244;2023-05-07T14:19:45;16.45;;;15.00;;
51732;SDS011;39139;53.144;6.244;2023-05-07T14:22:10;16.50;;;15.07;;
51732;SDS011;39139;53.144;6.244;2023-05-07T14:24:38;16.75;;;15.15;;
51732;SDS011;39139;53.144;6.244;2023-05-07T14:27:04;16.70;;;15.10;;
51732;SDS011;39139;53.144;6.244;2023-05-07T14:29:30;16.73;;;15.13;;
51732;SDS011;39139;53.144;6.244;2023-05-07T14:31:56;16.60;;;15.07;;
51732;SDS011;39139;53.144;6.244;2023-05-07T14:34:21;18.05;;;16.27;;
51732;SDS011;39139;53.144;6.244;2023-05-07T14:36:47;16.02;;;14.63;;
51732;SDS011;39139;53.144;6.244;2023-05-07T14:39:13;16.13;;;14.63;;
51732;SDS011;39139;53.144;6.244;2023-05-07T14:41:38;16.73;;;15.18;;
51732;SDS011;39139;53.144;6.244;2023-05-07T14:44:04;15.85;;;14.45;;
51732;SDS011;39139;53.144;6.244;2023-05-07T14:46:30;16.80;;;15.10;;